createdAt,value
2017-07-31T00:02:10.405Z,22.50
2017-07-31T00:04:37.505Z,22.50
2017-07-31T00:07:03.842Z,22.50
2017-07-31T00:09:30.202Z,22.50
2017-07-31T00:11:57.278Z,22.50
2017-07-31T00:14:23.624Z,22.50
2017-07-31T00:16:49.986Z,22.50
2017-07-31T00:19:16.414Z,22.50
2017-07-31T00:21:42.807Z,22.50
2017-07-31T00:24:09.219Z,22.50
2017-07-31T00:26:36.392Z,22.50
2017-07-31T00:29:02.806Z,22.50
2017-07-31T00:31:29.868Z,22.40
2017-07-31T00:33:56.212Z,22.40
2017-07-31T00:36:22.582Z,22.40
2017-07-31T00:38:48.978Z,22.40
2017-07-31T00:41:15.299Z,22.40
2017-07-31T00:43:41.664Z,22.30
2017-07-31T00:46:07.996Z,22.30
2017-07-31T00:48:34.387Z,22.30
2017-07-31T00:51:00.817Z,22.30
2017-07-31T00:53:27.160Z,22.30
2017-07-31T00:55:53.577Z,22.20
2017-07-31T00:58:19.899Z,22.30
2017-07-31T01:00:46.998Z,22.20
2017-07-31T01:03:13.310Z,22.20
2017-07-31T01:05:39.848Z,22.20
2017-07-31T01:08:06.180Z,22.20
2017-07-31T01:10:32.513Z,22.20
2017-07-31T01:12:58.894Z,22.10
2017-07-31T01:15:25.249Z,22.10
2017-07-31T01:17:51.600Z,22.10
2017-07-31T01:20:18.033Z,22.10
2017-07-31T01:22:44.629Z,22.10
2017-07-31T01:25:11.280Z,22.00
2017-07-31T01:27:38.346Z,21.90
2017-07-31T01:30:04.669Z,21.90
2017-07-31T01:32:31.031Z,21.90
2017-07-31T01:34:57.364Z,21.90
2017-07-31T01:37:23.777Z,21.90
2017-07-31T01:39:50.103Z,21.80
2017-07-31T01:42:16.547Z,21.80
2017-07-31T01:44:42.886Z,21.80
2017-07-31T01:47:09.273Z,21.80
2017-07-31T01:49:36.424Z,21.80
2017-07-31T01:52:03.531Z,21.80
2017-07-31T01:54:29.913Z,21.80
2017-07-31T01:56:57.068Z,21.70
2017-07-31T01:59:23.764Z,21.80
2017-07-31T02:01:50.154Z,21.80
2017-07-31T02:04:16.539Z,21.80
2017-07-31T02:06:42.901Z,21.80
2017-07-31T02:09:09.265Z,21.80
2017-07-31T02:11:35.663Z,21.80
2017-07-31T02:14:02.052Z,21.80
2017-07-31T02:16:28.408Z,21.80
2017-07-31T02:18:54.777Z,21.80
2017-07-31T02:21:21.179Z,21.80
2017-07-31T02:23:48.253Z,21.80
2017-07-31T02:26:14.662Z,21.80
2017-07-31T02:28:41.728Z,21.70
2017-07-31T02:31:08.061Z,21.70
2017-07-31T02:33:34.620Z,21.70
2017-07-31T02:36:01.150Z,21.70
2017-07-31T02:38:27.548Z,21.70
2017-07-31T02:40:54.607Z,21.70
2017-07-31T02:43:20.920Z,21.70
2017-07-31T02:45:48.038Z,21.60
2017-07-31T02:48:14.355Z,21.60
2017-07-31T02:50:40.728Z,21.60
2017-07-31T02:53:07.826Z,21.60
2017-07-31T02:55:34.197Z,21.50
2017-07-31T02:58:00.516Z,21.60
2017-07-31T03:00:26.961Z,21.60
2017-07-31T03:02:53.325Z,21.50
2017-07-31T03:05:19.723Z,21.50
2017-07-31T03:07:46.040Z,21.50
2017-07-31T03:10:12.405Z,21.50
2017-07-31T03:12:39.508Z,21.40
2017-07-31T03:15:05.851Z,21.40
2017-07-31T03:17:32.252Z,21.40
2017-07-31T03:19:58.610Z,21.40
2017-07-31T03:22:24.957Z,21.40
2017-07-31T03:24:51.461Z,21.40
2017-07-31T03:27:17.815Z,21.30
2017-07-31T03:29:44.202Z,21.30
2017-07-31T03:32:12.210Z,21.30
2017-07-31T03:34:38.596Z,21.30
2017-07-31T03:37:04.954Z,21.30
2017-07-31T03:39:31.317Z,21.20
2017-07-31T03:41:57.636Z,21.20
2017-07-31T03:44:24.073Z,21.20
2017-07-31T03:46:50.389Z,21.20
2017-07-31T03:49:16.748Z,21.20
2017-07-31T03:51:43.115Z,21.20
2017-07-31T03:54:09.481Z,21.20
2017-07-31T03:56:35.799Z,21.20
2017-07-31T03:59:02.170Z,21.10
2017-07-31T04:01:28.569Z,21.10
2017-07-31T04:03:54.890Z,21.10
2017-07-31T04:06:21.260Z,21.10
2017-07-31T04:08:47.605Z,21.10
2017-07-31T04:11:13.948Z,21.10
2017-07-31T04:13:41.156Z,21.10
2017-07-31T04:16:07.479Z,21.10
2017-07-31T04:18:33.844Z,21.10
2017-07-31T04:21:00.192Z,21.10
2017-07-31T04:23:27.243Z,21.10
2017-07-31T04:25:54.364Z,21.10
2017-07-31T04:28:20.715Z,21.10
2017-07-31T04:30:47.816Z,21.10
2017-07-31T04:33:14.204Z,21.10
2017-07-31T04:35:41.380Z,21.00
2017-07-31T04:38:07.819Z,21.00
2017-07-31T04:40:34.152Z,21.00
2017-07-31T04:43:00.476Z,21.00
2017-07-31T04:45:26.913Z,21.00
2017-07-31T04:47:53.281Z,21.00
2017-07-31T04:50:19.633Z,21.00
2017-07-31T04:52:46.035Z,21.00
2017-07-31T04:55:12.355Z,21.00
2017-07-31T04:57:39.340Z,21.00
2017-07-31T05:00:06.512Z,21.00
2017-07-31T05:02:33.636Z,21.00
2017-07-31T05:05:00.307Z,21.00
2017-07-31T05:07:26.717Z,21.00
2017-07-31T05:09:53.886Z,21.00
2017-07-31T05:12:20.300Z,21.00
2017-07-31T05:14:47.361Z,21.00
2017-07-31T05:17:13.734Z,21.00
2017-07-31T05:19:40.045Z,21.10
2017-07-31T05:22:06.421Z,21.10
2017-07-31T05:24:32.814Z,21.10
2017-07-31T05:26:59.131Z,21.10
2017-07-31T05:29:25.453Z,21.10
2017-07-31T05:31:51.840Z,21.10
2017-07-31T05:34:18.169Z,21.20
2017-07-31T05:36:44.564Z,21.20
2017-07-31T05:39:10.946Z,21.20
2017-07-31T05:41:37.267Z,21.30
2017-07-31T05:44:03.754Z,21.30
2017-07-31T05:46:30.152Z,21.30
2017-07-31T05:48:56.874Z,21.30
2017-07-31T05:51:23.298Z,21.40
2017-07-31T05:53:49.651Z,21.40
2017-07-31T05:56:15.972Z,21.40
2017-07-31T05:58:42.335Z,21.50
2017-07-31T06:01:09.440Z,21.60
2017-07-31T06:03:35.816Z,21.50
2017-07-31T06:06:02.256Z,21.60
2017-07-31T06:08:28.637Z,21.60
2017-07-31T06:10:55.074Z,21.60
2017-07-31T06:13:21.430Z,21.60
2017-07-31T06:15:47.824Z,21.60
2017-07-31T06:18:14.151Z,21.70
2017-07-31T06:20:40.508Z,21.70
2017-07-31T06:23:06.945Z,21.70
2017-07-31T06:25:33.261Z,21.80
2017-07-31T06:27:59.737Z,21.80
2017-07-31T06:30:27.034Z,21.90
2017-07-31T06:32:53.505Z,21.90
2017-07-31T06:35:19.922Z,21.90
2017-07-31T06:37:46.252Z,22.00
2017-07-31T06:40:12.592Z,22.00
2017-07-31T06:42:38.992Z,22.00
2017-07-31T06:45:05.392Z,22.00
2017-07-31T06:47:47.458Z,22.10
2017-07-31T06:50:13.780Z,22.10
2017-07-31T06:52:40.180Z,22.20
2017-07-31T06:55:06.538Z,22.20
2017-07-31T06:57:33.104Z,22.20
2017-07-31T06:59:59.711Z,22.30
2017-07-31T07:02:26.107Z,22.30
2017-07-31T07:04:52.618Z,22.40
2017-07-31T07:07:19.766Z,22.50
2017-07-31T07:09:47.180Z,22.50
2017-07-31T07:12:13.645Z,22.50
2017-07-31T07:14:40.808Z,22.60
2017-07-31T07:17:07.293Z,22.60
2017-07-31T07:19:33.621Z,22.70
2017-07-31T07:22:00.031Z,22.80
2017-07-31T07:24:26.409Z,22.80
2017-07-31T07:26:52.727Z,22.80
2017-07-31T07:29:19.186Z,22.90
2017-07-31T07:31:45.554Z,22.90
2017-07-31T07:34:12.017Z,22.90
2017-07-31T07:36:38.482Z,23.00
2017-07-31T07:39:05.002Z,23.10
2017-07-31T07:41:31.524Z,23.20
2017-07-31T07:43:57.853Z,23.30
2017-07-31T07:46:24.253Z,23.40
2017-07-31T07:48:50.613Z,23.40
2017-07-31T07:51:17.178Z,23.50
2017-07-31T07:53:43.722Z,23.60
2017-07-31T07:56:10.111Z,23.70
2017-07-31T07:58:36.554Z,23.70
2017-07-31T08:01:02.923Z,23.80
2017-07-31T08:03:29.356Z,23.80
2017-07-31T08:05:55.689Z,23.90
2017-07-31T08:08:22.004Z,24.00
2017-07-31T08:10:48.427Z,24.10
2017-07-31T08:13:14.798Z,24.20
2017-07-31T08:15:41.922Z,24.30
2017-07-31T08:18:08.285Z,24.20
2017-07-31T08:20:35.405Z,24.30
2017-07-31T08:23:01.724Z,24.30
2017-07-31T08:25:28.060Z,24.40
2017-07-31T08:27:54.419Z,24.40
2017-07-31T08:30:21.529Z,24.40
2017-07-31T08:32:48.070Z,24.40
2017-07-31T08:35:14.515Z,24.40
2017-07-31T08:37:40.854Z,24.40
2017-07-31T08:40:07.230Z,24.40
2017-07-31T08:42:33.562Z,24.40
2017-07-31T08:44:59.898Z,24.50
2017-07-31T08:47:26.269Z,24.50
2017-07-31T08:49:52.599Z,24.60
2017-07-31T08:52:19.215Z,24.60
2017-07-31T08:54:45.777Z,24.70
2017-07-31T08:57:12.160Z,24.80
2017-07-31T08:59:38.739Z,24.90
2017-07-31T09:02:05.152Z,25.00
2017-07-31T09:04:31.620Z,25.00
2017-07-31T09:06:57.983Z,25.10
2017-07-31T09:09:24.406Z,25.20
2017-07-31T09:11:51.471Z,25.30
2017-07-31T09:14:24.856Z,25.30
2017-07-31T09:16:51.957Z,25.40
2017-07-31T09:19:18.393Z,25.30
2017-07-31T09:21:44.772Z,25.40
2017-07-31T09:24:11.096Z,25.40
2017-07-31T09:26:38.288Z,25.40
2017-07-31T09:29:04.676Z,25.40
2017-07-31T09:31:31.804Z,25.40
2017-07-31T09:33:58.181Z,25.40
2017-07-31T09:36:24.715Z,25.50
2017-07-31T09:38:51.182Z,25.50
2017-07-31T09:41:17.543Z,25.50
2017-07-31T09:43:43.868Z,25.50
2017-07-31T09:46:10.225Z,25.50
2017-07-31T09:48:37.357Z,25.50
2017-07-31T09:51:04.488Z,25.50
2017-07-31T09:53:30.893Z,25.50
2017-07-31T09:55:57.278Z,25.50
2017-07-31T09:58:24.429Z,25.50
2017-07-31T10:00:51.488Z,25.50
2017-07-31T10:03:18.543Z,25.50
2017-07-31T10:05:44.898Z,25.50
2017-07-31T10:08:11.229Z,25.50
2017-07-31T10:10:37.594Z,25.50
2017-07-31T10:13:03.961Z,25.60
2017-07-31T10:21:15.274Z,25.80
2017-07-31T10:23:41.675Z,25.90
2017-07-31T10:26:08.418Z,26.00
2017-07-31T10:28:34.762Z,26.10
2017-07-31T10:31:01.186Z,26.20
2017-07-31T10:33:27.774Z,26.30
2017-07-31T10:35:55.003Z,26.40
2017-07-31T10:38:21.449Z,26.40
2017-07-31T10:40:47.779Z,26.50
2017-07-31T10:43:14.219Z,26.50
2017-07-31T10:45:41.449Z,26.60
2017-07-31T10:48:07.939Z,26.60
2017-07-31T10:50:34.397Z,26.80
2017-07-31T10:53:00.778Z,26.80
2017-07-31T10:55:27.945Z,27.00
2017-07-31T10:57:54.598Z,27.00
2017-07-31T11:00:20.930Z,27.00
2017-07-31T11:02:47.374Z,27.10
2017-07-31T11:05:13.852Z,27.10
2017-07-31T11:07:41.102Z,27.20
2017-07-31T11:10:08.996Z,27.20
2017-07-31T11:12:35.442Z,27.20
2017-07-31T11:15:01.909Z,27.20
2017-07-31T11:17:28.788Z,27.20
2017-07-31T11:19:55.624Z,27.20
2017-07-31T11:22:22.240Z,27.20
2017-07-31T11:24:49.499Z,27.10
2017-07-31T11:27:15.869Z,27.10
2017-07-31T11:29:42.251Z,27.10
2017-07-31T11:32:08.642Z,27.00
2017-07-31T11:34:34.981Z,27.00
2017-07-31T11:37:01.372Z,27.00
2017-07-31T11:39:27.725Z,26.90
2017-07-31T11:41:54.109Z,27.00
2017-07-31T11:44:20.529Z,26.90
2017-07-31T11:46:47.043Z,26.90
2017-07-31T11:49:13.442Z,26.90
2017-07-31T11:51:40.707Z,26.90
2017-07-31T11:54:07.934Z,26.80
2017-07-31T11:56:34.496Z,26.80
2017-07-31T11:59:00.909Z,26.80
2017-07-31T12:01:28.004Z,26.80
2017-07-31T12:03:54.478Z,26.70
2017-07-31T12:06:20.846Z,26.80
2017-07-31T12:08:47.381Z,26.80
2017-07-31T12:11:13.867Z,26.80
2017-07-31T12:13:40.540Z,26.90
2017-07-31T12:16:08.102Z,27.00
2017-07-31T12:18:34.551Z,27.00
2017-07-31T12:21:00.920Z,27.10
2017-07-31T12:23:27.386Z,27.10
2017-07-31T12:25:53.756Z,27.20
2017-07-31T12:28:20.222Z,27.20
2017-07-31T12:30:46.657Z,27.10
2017-07-31T12:33:13.029Z,27.10
2017-07-31T12:35:40.249Z,26.90
2017-07-31T12:38:06.656Z,26.90
2017-07-31T12:40:32.998Z,26.80
2017-07-31T12:42:59.415Z,26.70
2017-07-31T12:45:25.783Z,26.60
2017-07-31T12:47:52.274Z,26.50
2017-07-31T12:50:18.713Z,26.40
2017-07-31T12:52:45.170Z,26.30
2017-07-31T12:55:11.563Z,26.30
2017-07-31T12:57:38.005Z,26.30
2017-07-31T13:00:04.442Z,26.30
2017-07-31T13:02:30.900Z,26.30
2017-07-31T13:04:57.640Z,26.30
2017-07-31T13:07:24.086Z,26.30
2017-07-31T13:09:50.611Z,26.30
2017-07-31T13:12:16.945Z,26.40
2017-07-31T13:14:43.347Z,26.50
2017-07-31T13:17:09.932Z,26.50
2017-07-31T13:19:36.298Z,26.60
2017-07-31T13:22:02.773Z,26.60
2017-07-31T13:24:29.289Z,26.60
2017-07-31T13:26:55.819Z,26.60
2017-07-31T13:29:22.256Z,26.60
2017-07-31T13:31:48.689Z,26.60
2017-07-31T13:34:15.227Z,26.50
2017-07-31T13:36:41.683Z,26.60
2017-07-31T13:39:08.158Z,26.60
2017-07-31T13:41:35.288Z,26.50
2017-07-31T13:44:01.802Z,26.50
2017-07-31T13:46:28.338Z,26.50
2017-07-31T13:48:54.772Z,26.50
2017-07-31T13:51:21.200Z,26.50
2017-07-31T13:53:47.715Z,26.50
2017-07-31T13:56:14.147Z,26.50
2017-07-31T13:58:40.601Z,26.50
2017-07-31T14:01:06.962Z,26.50
2017-07-31T14:03:33.454Z,26.50
2017-07-31T14:05:59.901Z,26.40
2017-07-31T14:08:26.375Z,26.40
2017-07-31T14:10:52.829Z,26.40
2017-07-31T14:13:19.303Z,26.40
2017-07-31T14:15:45.735Z,26.40
2017-07-31T14:18:12.272Z,26.40
2017-07-31T14:20:38.611Z,26.40
2017-07-31T14:23:05.093Z,26.40
2017-07-31T14:25:31.571Z,26.30
2017-07-31T14:27:57.981Z,26.40
2017-07-31T14:30:24.416Z,26.40
2017-07-31T14:32:50.769Z,26.40
2017-07-31T14:35:17.205Z,26.40
2017-07-31T14:37:43.634Z,26.40
2017-07-31T14:40:10.455Z,26.40
2017-07-31T14:42:36.790Z,26.40
2017-07-31T14:45:03.343Z,26.40
2017-07-31T14:47:29.797Z,26.40
2017-07-31T14:49:56.161Z,26.40
2017-07-31T14:52:23.336Z,26.40
2017-07-31T14:54:49.771Z,26.30
2017-07-31T14:57:16.167Z,26.40
2017-07-31T14:59:43.306Z,26.30
2017-07-31T15:02:09.912Z,26.30
2017-07-31T15:04:36.274Z,26.30
2017-07-31T15:07:02.925Z,26.30
2017-07-31T15:09:30.133Z,26.30
2017-07-31T15:11:56.510Z,26.30
2017-07-31T15:14:23.796Z,26.30
2017-07-31T15:16:50.221Z,26.30
2017-07-31T15:19:16.786Z,26.30
2017-07-31T15:21:43.218Z,26.30
2017-07-31T15:24:09.653Z,26.30
2017-07-31T15:26:36.053Z,26.30
2017-07-31T15:29:02.493Z,26.30
2017-07-31T15:31:29.054Z,26.30
2017-07-31T15:33:55.486Z,26.20
2017-07-31T15:36:21.934Z,26.30
2017-07-31T15:38:48.343Z,26.20
2017-07-31T15:41:14.727Z,26.20
2017-07-31T15:43:41.870Z,26.20
2017-07-31T15:46:08.267Z,26.20
2017-07-31T15:48:34.683Z,26.20
2017-07-31T15:51:01.046Z,26.20
2017-07-31T15:53:27.373Z,26.20
2017-07-31T15:55:53.873Z,26.30
2017-07-31T15:58:20.311Z,26.30
2017-07-31T16:00:46.868Z,26.30
2017-07-31T16:03:13.209Z,26.30
2017-07-31T16:05:39.544Z,26.30
2017-07-31T16:08:06.036Z,26.30
2017-07-31T16:10:32.372Z,26.30
2017-07-31T16:12:58.908Z,26.30
2017-07-31T16:15:25.305Z,26.30
2017-07-31T16:17:52.413Z,26.30
2017-07-31T16:20:18.845Z,26.30
2017-07-31T16:22:45.252Z,26.30
2017-07-31T16:25:11.784Z,26.30
2017-07-31T16:27:38.139Z,26.20
2017-07-31T16:30:04.551Z,26.20
2017-07-31T16:32:31.008Z,26.20
2017-07-31T16:34:57.401Z,26.20
2017-07-31T16:37:35.117Z,26.20
2017-07-31T16:40:13.862Z,26.20
2017-07-31T16:42:52.583Z,26.20
2017-07-31T16:45:38.756Z,26.20
2017-07-31T16:48:12.256Z,26.20
2017-07-31T16:50:38.663Z,26.10
2017-07-31T16:53:05.804Z,26.10
2017-07-31T16:55:33.189Z,26.10
2017-07-31T16:57:59.648Z,26.10
2017-07-31T17:00:26.055Z,26.20
2017-07-31T17:02:52.481Z,26.20
2017-07-31T17:05:18.948Z,26.20
2017-07-31T17:07:45.563Z,26.20
2017-07-31T17:10:11.994Z,26.20
2017-07-31T17:12:38.452Z,26.10
2017-07-31T17:15:04.988Z,26.10
2017-07-31T17:17:31.410Z,26.10
2017-07-31T17:19:57.848Z,26.10
2017-07-31T17:22:24.492Z,26.10
2017-07-31T17:24:50.891Z,26.10
2017-07-31T17:27:17.235Z,26.10
2017-07-31T17:29:43.895Z,26.10
2017-07-31T17:32:10.302Z,26.00
2017-07-31T17:34:36.818Z,26.00
2017-07-31T17:37:03.291Z,26.00
2017-07-31T17:39:29.660Z,26.00
2017-07-31T17:41:55.996Z,26.00
2017-07-31T17:44:22.478Z,26.00
2017-07-31T17:46:48.822Z,26.00
2017-07-31T17:49:15.189Z,26.00
2017-07-31T17:51:42.364Z,25.90
2017-07-31T17:54:08.825Z,25.90
2017-07-31T17:56:35.191Z,25.90
2017-07-31T17:59:01.582Z,25.90
2017-07-31T18:01:28.008Z,25.90
2017-07-31T18:03:54.359Z,25.90
2017-07-31T18:06:20.774Z,25.90
2017-07-31T18:08:47.241Z,25.90
2017-07-31T18:11:13.651Z,25.90
2017-07-31T18:13:40.083Z,25.90
2017-07-31T18:16:06.451Z,25.90
2017-07-31T18:18:32.874Z,25.90
2017-07-31T18:20:59.203Z,25.80
2017-07-31T18:23:25.713Z,25.80
2017-07-31T18:25:52.333Z,25.80
2017-07-31T18:28:18.699Z,25.80
2017-07-31T18:30:45.120Z,25.80
2017-07-31T18:33:11.573Z,25.80
2017-07-31T18:35:37.996Z,25.80
2017-07-31T18:38:04.353Z,25.80
2017-07-31T18:40:30.817Z,25.80
2017-07-31T18:42:57.261Z,25.80
2017-07-31T18:45:23.619Z,25.80
2017-07-31T18:47:50.073Z,25.80
2017-07-31T18:50:16.526Z,25.80
2017-07-31T18:52:42.968Z,25.70
2017-07-31T18:55:10.131Z,25.70
2017-07-31T18:57:37.269Z,25.70
2017-07-31T19:00:04.897Z,25.70
2017-07-31T19:02:31.422Z,25.70
2017-07-31T19:04:57.826Z,25.70
2017-07-31T19:07:24.181Z,25.60
2017-07-31T19:09:50.626Z,25.60
2017-07-31T19:12:17.231Z,25.60
2017-07-31T19:14:43.656Z,25.60
2017-07-31T19:17:10.065Z,25.50
2017-07-31T19:19:37.257Z,25.50
2017-07-31T19:22:03.641Z,25.50
2017-07-31T19:24:29.999Z,25.50
2017-07-31T19:26:56.462Z,25.40
2017-07-31T19:29:22.901Z,25.40
2017-07-31T19:31:49.307Z,25.40
2017-07-31T19:34:15.701Z,25.40
2017-07-31T19:36:42.282Z,25.40
2017-07-31T19:39:08.745Z,25.40
2017-07-31T19:41:35.235Z,25.40
2017-07-31T19:44:01.589Z,25.40
2017-07-31T19:46:28.249Z,25.30
2017-07-31T19:48:54.664Z,25.30
2017-07-31T19:51:20.996Z,25.30
2017-07-31T19:53:47.367Z,25.30
2017-07-31T19:56:13.729Z,25.30
2017-07-31T19:58:40.174Z,25.30
2017-07-31T20:01:06.573Z,25.30
2017-07-31T20:03:32.965Z,25.30
2017-07-31T20:05:59.366Z,25.30
2017-07-31T20:08:26.410Z,25.30
2017-07-31T20:10:52.838Z,25.30
2017-07-31T20:13:19.222Z,25.30
2017-07-31T20:15:45.570Z,25.20
2017-07-31T20:18:11.946Z,25.10
2017-07-31T20:20:38.315Z,25.10
2017-07-31T20:23:04.739Z,25.10
2017-07-31T20:25:31.118Z,25.00
2017-07-31T20:27:58.230Z,24.90
2017-07-31T20:30:24.623Z,24.90
2017-07-31T20:32:51.016Z,24.90
2017-07-31T20:35:17.397Z,24.80
2017-07-31T20:37:43.802Z,24.80
2017-07-31T20:40:11.004Z,24.70
2017-07-31T20:42:37.462Z,24.70
2017-07-31T20:45:03.875Z,24.70
2017-07-31T20:47:30.365Z,24.60
2017-07-31T20:49:56.766Z,24.60
2017-07-31T20:52:23.222Z,24.50
2017-07-31T20:54:49.615Z,24.50
2017-07-31T20:57:16.104Z,24.50
2017-07-31T20:59:42.518Z,24.40
2017-07-31T21:02:09.597Z,24.30
2017-07-31T21:04:35.974Z,24.30
2017-07-31T21:07:02.367Z,24.30
2017-07-31T21:09:28.774Z,24.20
2017-07-31T21:11:55.215Z,24.20
2017-07-31T21:14:22.224Z,24.20
2017-07-31T21:16:48.755Z,24.20
2017-07-31T21:19:15.386Z,24.10
2017-07-31T21:21:41.837Z,24.10
2017-07-31T21:24:09.002Z,24.10
2017-07-31T21:26:36.085Z,24.10
2017-07-31T21:29:02.521Z,24.00
2017-07-31T21:31:28.902Z,24.00
2017-07-31T21:33:56.054Z,24.00
2017-07-31T21:36:23.330Z,24.00
2017-07-31T21:38:49.668Z,24.00
2017-07-31T21:41:16.063Z,23.90
2017-07-31T21:43:42.516Z,23.90
2017-07-31T21:46:08.982Z,23.90
2017-07-31T21:48:35.364Z,23.80
2017-07-31T21:51:02.592Z,23.80
2017-07-31T21:53:28.921Z,23.80
2017-07-31T21:55:55.248Z,23.80
2017-07-31T21:58:21.686Z,23.70
2017-07-31T22:00:48.219Z,23.70
2017-07-31T22:03:14.612Z,23.70
2017-07-31T22:05:41.106Z,23.70
2017-07-31T22:08:07.571Z,23.60
2017-07-31T22:10:33.974Z,23.60
2017-07-31T22:13:00.578Z,23.60
2017-07-31T22:15:26.949Z,23.50
2017-07-31T22:18:09.116Z,23.50
2017-07-31T22:20:54.319Z,23.40
2017-07-31T22:23:20.900Z,23.40
2017-07-31T22:25:47.260Z,23.40
2017-07-31T22:28:13.644Z,23.40
2017-07-31T22:30:39.994Z,23.40
2017-07-31T22:33:06.383Z,23.30
2017-07-31T22:35:33.486Z,23.30
2017-07-31T22:37:59.927Z,23.30
2017-07-31T22:40:26.442Z,23.30
2017-07-31T22:42:53.067Z,23.30
2017-07-31T22:45:19.451Z,23.20
2017-07-31T22:47:45.855Z,23.20
2017-07-31T22:50:12.250Z,23.20
2017-07-31T22:52:39.447Z,23.20
2017-07-31T22:55:05.854Z,23.20
2017-07-31T22:57:32.199Z,23.10
2017-07-31T22:59:58.634Z,23.10
2017-07-31T23:02:25.032Z,23.10
2017-07-31T23:04:52.118Z,23.00
2017-07-31T23:07:18.547Z,23.00
2017-07-31T23:09:44.993Z,23.00
2017-07-31T23:12:11.399Z,23.00
2017-07-31T23:14:37.796Z,23.00
2017-07-31T23:17:04.176Z,22.90
2017-07-31T23:19:30.561Z,22.80
2017-07-31T23:21:56.966Z,22.90
2017-07-31T23:24:23.405Z,22.80
2017-07-31T23:26:49.768Z,22.80
2017-07-31T23:29:16.853Z,22.70
2017-07-31T23:31:43.252Z,22.70
2017-07-31T23:34:10.339Z,22.70
2017-07-31T23:36:36.769Z,22.70
2017-07-31T23:39:03.217Z,22.70
2017-07-31T23:41:29.620Z,22.80
2017-07-31T23:43:55.969Z,22.80
2017-07-31T23:46:22.583Z,22.80
2017-07-31T23:48:48.917Z,22.80
2017-07-31T23:51:15.297Z,22.80
2017-07-31T23:53:41.642Z,22.80
2017-07-31T23:56:08.013Z,22.80
2017-07-31T23:58:34.382Z,22.80
